Terminal Aerodrome Forecast
Issued by NWS Blacksburg, VA

Current Version | Previous Version | Text Only | Print | Product List | Glossary Off
Versions: 1 2 3 4 5 6 7 8 9 10 11 12 13 14 15 16 17 18 19

000
FTUS41 KRNK 220534
TAFBLF
TAF
KBLF 220534Z 2206/2306 VRB03KT P6SM BKN090
     FM221600 26005KT P6SM VCTS SCT050CB BKN090
      TEMPO 2220/2222 5SM TSRA BR OVC030CB
     FM230000 25004KT P6SM OVC070=

USA.gov is the U.S. government's official web portal to all federal, state and local government web resources and services.